Archival Weather

Tokyo Intl

Tokyo Intl, Japan (RJTT)

Report from: Friday, June 24, 2022 8:00 AM JST
Current time: Tuesday, August 16, 2022 4:41 PM JST

Current weather
Weather history
Weather forecast

Temperature28.0°C (82.4°F)
Heat index32.0°C (89.6°F)
Dew point24.0°C (75.2°F)
Winds 20 kts (10.3 m/s, 23 mph) Southwest (220°)
Wind gusts 30 kts (15.4 m/s, 34.5 mph)
Visibility6.2 mi. (10 km)
Clouds Ceiling: Broken clouds 0 ft. (0 m)
Few clouds 700 ft. (213 m)
Broken clouds 18,000 ft. (5,486 m)
Altimeter29.71 in.Hg (1006 mB)
Relative humidity79 %
Density altitude2,140 ft. (652 m)
Flight conditions Low Instrument Meteorological Conditions
Raw dataRJTT 232300Z 22020KT 9999 FEW007 BKN180 BKN/// 28/24 Q1006 TEMPO 20020G30KT
An error has occurred. This application may no longer respond until reloaded. Reload 🗙